sensor_id;sensor_type;location;lat;lon;timestamp;P1;durP1;ratioP1;P2;durP2;ratioP2
39918;SDS011;25589;51.552;13.424;2023-04-12T00:01:34;2.55;;;1.75;;
39918;SDS011;25589;51.552;13.424;2023-04-12T00:04:00;3.42;;;1.90;;
39918;SDS011;25589;51.552;13.424;2023-04-12T00:06:30;2.45;;;1.95;;
39918;SDS011;25589;51.552;13.424;2023-04-12T00:08:59;5.25;;;2.20;;
39918;SDS011;25589;51.552;13.424;2023-04-12T00:11:25;2.42;;;1.98;;
39918;SDS011;25589;51.552;13.424;2023-04-12T00:13:52;2.03;;;1.70;;
39918;SDS011;25589;51.552;13.424;2023-04-12T00:16:18;1.88;;;1.70;;
39918;SDS011;25589;51.552;13.424;2023-04-12T00:18:44;1.92;;;1.80;;
39918;SDS011;25589;51.552;13.424;2023-04-12T00:21:10;4.13;;;2.28;;
39918;SDS011;25589;51.552;13.424;2023-04-12T00:23:36;4.00;;;2.38;;
39918;SDS011;25589;51.552;13.424;2023-04-12T00:26:04;4.85;;;2.13;;
39918;SDS011;25589;51.552;13.424;2023-04-12T00:28:30;3.30;;;1.90;;
39918;SDS011;25589;51.552;13.424;2023-04-12T00:30:56;2.80;;;2.10;;
39918;SDS011;25589;51.552;13.424;2023-04-12T00:33:21;5.18;;;3.08;;
39918;SDS011;25589;51.552;13.424;2023-04-12T00:35:47;3.78;;;2.53;;
39918;SDS011;25589;51.552;13.424;2023-04-12T00:38:13;3.45;;;2.17;;
39918;SDS011;25589;51.552;13.424;2023-04-12T00:40:40;4.13;;;2.20;;
39918;SDS011;25589;51.552;13.424;2023-04-12T00:43:06;3.08;;;2.05;;
39918;SDS011;25589;51.552;13.424;2023-04-12T00:45:33;3.40;;;2.35;;
39918;SDS011;25589;51.552;13.424;2023-04-12T00:48:01;4.75;;;2.30;;
39918;SDS011;25589;51.552;13.424;2023-04-12T00:50:27;3.92;;;2.35;;
39918;SDS011;25589;51.552;13.424;2023-04-12T00:52:53;4.93;;;1.95;;
39918;SDS011;25589;51.552;13.424;2023-04-12T00:55:19;3.08;;;2.10;;
39918;SDS011;25589;51.552;13.424;2023-04-12T00:57:45;2.58;;;2.30;;
39918;SDS011;25589;51.552;13.424;2023-04-12T01:00:11;3.53;;;2.20;;
39918;SDS011;25589;51.552;13.424;2023-04-12T01:02:37;3.97;;;2.35;;
39918;SDS011;25589;51.552;13.424;2023-04-12T01:05:06;2.83;;;1.92;;
39918;SDS011;25589;51.552;13.424;2023-04-12T01:12:56;4.60;;;2.08;;
39918;SDS011;25589;51.552;13.424;2023-04-12T01:15:56;3.97;;;2.45;;
39918;SDS011;25589;51.552;13.424;2023-04-12T01:18:27;5.07;;;2.78;;
39918;SDS011;25589;51.552;13.424;2023-04-12T01:20:56;3.97;;;2.53;;
39918;SDS011;25589;51.552;13.424;2023-04-12T01:29:00;2.50;;;2.22;;
39918;SDS011;25589;51.552;13.424;2023-04-12T01:31:31;3.05;;;2.75;;
39918;SDS011;25589;51.552;13.424;2023-04-12T01:33:59;4.53;;;2.53;;
39918;SDS011;25589;51.552;13.424;2023-04-12T01:36:26;5.00;;;2.67;;
39918;SDS011;25589;51.552;13.424;2023-04-12T01:38:53;4.32;;;2.38;;
39918;SDS011;25589;51.552;13.424;2023-04-12T01:41:20;4.85;;;2.53;;
39918;SDS011;25589;51.552;13.424;2023-04-12T01:43:46;4.38;;;2.97;;
39918;SDS011;25589;51.552;13.424;2023-04-12T01:46:13;3.63;;;3.28;;
39918;SDS011;25589;51.552;13.424;2023-04-12T01:48:42;3.88;;;3.03;;
39918;SDS011;25589;51.552;13.424;2023-04-12T01:51:15;4.25;;;2.47;;
39918;SDS011;25589;51.552;13.424;2023-04-12T01:53:58;4.70;;;2.97;;
39918;SDS011;25589;51.552;13.424;2023-04-12T01:56:29;3.75;;;2.90;;
39918;SDS011;25589;51.552;13.424;2023-04-12T01:58:57;7.68;;;2.85;;
39918;SDS011;25589;51.552;13.424;2023-04-12T02:01:24;4.60;;;2.90;;
39918;SDS011;25589;51.552;13.424;2023-04-12T02:03:50;4.70;;;3.17;;
39918;SDS011;25589;51.552;13.424;2023-04-12T02:06:19;4.20;;;2.92;;
39918;SDS011;25589;51.552;13.424;2023-04-12T02:08:46;5.03;;;3.13;;
39918;SDS011;25589;51.552;13.424;2023-04-12T02:11:12;4.50;;;2.55;;
39918;SDS011;25589;51.552;13.424;2023-04-12T02:13:38;4.50;;;2.55;;
39918;SDS011;25589;51.552;13.424;2023-04-12T02:16:04;7.53;;;3.17;;
39918;SDS011;25589;51.552;13.424;2023-04-12T02:18:32;6.32;;;3.20;;
39918;SDS011;25589;51.552;13.424;2023-04-12T02:21:03;8.15;;;4.05;;
39918;SDS011;25589;51.552;13.424;2023-04-12T02:23:28;6.18;;;3.28;;
39918;SDS011;25589;51.552;13.424;2023-04-12T02:25:54;5.32;;;3.53;;
39918;SDS011;25589;51.552;13.424;2023-04-12T02:28:20;5.70;;;3.58;;
39918;SDS011;25589;51.552;13.424;2023-04-12T02:30:47;6.60;;;3.65;;
39918;SDS011;25589;51.552;13.424;2023-04-12T02:33:13;4.72;;;3.40;;
39918;SDS011;25589;51.552;13.424;2023-04-12T02:35:42;7.68;;;4.03;;
39918;SDS011;25589;51.552;13.424;2023-04-12T02:38:11;6.72;;;3.50;;
39918;SDS011;25589;51.552;13.424;2023-04-12T02:40:42;4.63;;;3.33;;
39918;SDS011;25589;51.552;13.424;2023-04-12T02:43:13;6.00;;;3.58;;
39918;SDS011;25589;51.552;13.424;2023-04-12T02:45:42;5.57;;;3.60;;
39918;SDS011;25589;51.552;13.424;2023-04-12T02:48:09;5.53;;;3.53;;
39918;SDS011;25589;51.552;13.424;2023-04-12T02:50:35;6.78;;;3.80;;
39918;SDS011;25589;51.552;13.424;2023-04-12T02:53:10;9.30;;;4.10;;
39918;SDS011;25589;51.552;13.424;2023-04-12T02:55:37;8.30;;;3.78;;
39918;SDS011;25589;51.552;13.424;2023-04-12T02:58:04;5.20;;;3.85;;
39918;SDS011;25589;51.552;13.424;2023-04-12T03:00:33;6.78;;;3.97;;
39918;SDS011;25589;51.552;13.424;2023-04-12T03:02:59;8.20;;;4.05;;
39918;SDS011;25589;51.552;13.424;2023-04-12T03:05:28;5.38;;;3.97;;
39918;SDS011;25589;51.552;13.424;2023-04-12T03:07:54;8.00;;;4.05;;
39918;SDS011;25589;51.552;13.424;2023-04-12T03:13:00;5.30;;;3.67;;
39918;SDS011;25589;51.552;13.424;2023-04-12T03:15:33;6.97;;;4.07;;
39918;SDS011;25589;51.552;13.424;2023-04-12T03:17:59;5.68;;;3.83;;
39918;SDS011;25589;51.552;13.424;2023-04-12T03:20:29;7.00;;;3.60;;
39918;SDS011;25589;51.552;13.424;2023-04-12T03:23:01;5.82;;;3.92;;
39918;SDS011;25589;51.552;13.424;2023-04-12T03:25:29;6.53;;;4.47;;
39918;SDS011;25589;51.552;13.424;2023-04-12T03:30:43;6.88;;;4.15;;
39918;SDS011;25589;51.552;13.424;2023-04-12T03:33:08;6.95;;;4.30;;
39918;SDS011;25589;51.552;13.424;2023-04-12T03:35:34;6.28;;;4.20;;
39918;SDS011;25589;51.552;13.424;2023-04-12T03:38:00;7.35;;;3.97;;
39918;SDS011;25589;51.552;13.424;2023-04-12T03:40:26;7.00;;;3.80;;
39918;SDS011;25589;51.552;13.424;2023-04-12T03:42:56;7.50;;;4.20;;
39918;SDS011;25589;51.552;13.424;2023-04-12T03:45:23;5.40;;;3.88;;
39918;SDS011;25589;51.552;13.424;2023-04-12T03:47:52;6.07;;;3.83;;
39918;SDS011;25589;51.552;13.424;2023-04-12T03:50:19;7.75;;;4.45;;
39918;SDS011;25589;51.552;13.424;2023-04-12T03:52:52;4.57;;;3.85;;
39918;SDS011;25589;51.552;13.424;2023-04-12T03:55:18;10.00;;;4.78;;
39918;SDS011;25589;51.552;13.424;2023-04-12T03:57:47;5.70;;;3.33;;
39918;SDS011;25589;51.552;13.424;2023-04-12T04:00:13;6.18;;;3.63;;
39918;SDS011;25589;51.552;13.424;2023-04-12T04:03:03;6.07;;;4.43;;
39918;SDS011;25589;51.552;13.424;2023-04-12T04:05:35;6.50;;;5.00;;
39918;SDS011;25589;51.552;13.424;2023-04-12T04:08:02;15.48;;;9.93;;
39918;SDS011;25589;51.552;13.424;2023-04-12T04:10:36;24.02;;;10.73;;
39918;SDS011;25589;51.552;13.424;2023-04-12T04:13:03;10.85;;;5.93;;
39918;SDS011;25589;51.552;13.424;2023-04-12T04:15:29;11.68;;;6.57;;
39918;SDS011;25589;51.552;13.424;2023-04-12T04:17:55;14.50;;;7.70;;
39918;SDS011;25589;51.552;13.424;2023-04-12T04:20:20;9.73;;;5.25;;
39918;SDS011;25589;51.552;13.424;2023-04-12T04:22:49;9.85;;;4.32;;
39918;SDS011;25589;51.552;13.424;2023-04-12T04:25:18;6.45;;;3.53;;
39918;SDS011;25589;51.552;13.424;2023-04-12T04:27:49;7.53;;;3.90;;
39918;SDS011;25589;51.552;13.424;2023-04-12T04:30:16;7.35;;;4.07;;
39918;SDS011;25589;51.552;13.424;2023-04-12T04:32:44;4.97;;;3.60;;
39918;SDS011;25589;51.552;13.424;2023-04-12T04:35:11;6.00;;;3.70;;
39918;SDS011;25589;51.552;13.424;2023-04-12T04:37:52;6.57;;;3.65;;
39918;SDS011;25589;51.552;13.424;2023-04-12T04:40:19;5.90;;;3.55;;
39918;SDS011;25589;51.552;13.424;2023-04-12T04:42:46;5.35;;;3.60;;
39918;SDS011;25589;51.552;13.424;2023-04-12T04:45:23;4.70;;;3.58;;
39918;SDS011;25589;51.552;13.424;2023-04-12T04:47:54;5.97;;;3.38;;
39918;SDS011;25589;51.552;13.424;2023-04-12T04:50:20;5.32;;;3.47;;
39918;SDS011;25589;51.552;13.424;2023-04-12T04:52:49;7.55;;;3.70;;
39918;SDS011;25589;51.552;13.424;2023-04-12T04:55:18;7.03;;;4.28;;
39918;SDS011;25589;51.552;13.424;2023-04-12T04:57:48;6.53;;;3.75;;
39918;SDS011;25589;51.552;13.424;2023-04-12T05:00:15;5.22;;;4.05;;
39918;SDS011;25589;51.552;13.424;2023-04-12T05:02:46;4.30;;;3.58;;
39918;SDS011;25589;51.552;13.424;2023-04-12T05:05:20;5.28;;;3.35;;
39918;SDS011;25589;51.552;13.424;2023-04-12T05:07:55;6.60;;;3.92;;
39918;SDS011;25589;51.552;13.424;2023-04-12T05:10:21;7.80;;;4.32;;
39918;SDS011;25589;51.552;13.424;2023-04-12T05:12:47;7.50;;;4.22;;
39918;SDS011;25589;51.552;13.424;2023-04-12T05:15:13;6.28;;;3.75;;
39918;SDS011;25589;51.552;13.424;2023-04-12T05:17:39;7.55;;;4.43;;
39918;SDS011;25589;51.552;13.424;2023-04-12T05:20:05;9.95;;;4.32;;
39918;SDS011;25589;51.552;13.424;2023-04-12T05:22:32;7.75;;;3.78;;
39918;SDS011;25589;51.552;13.424;2023-04-12T05:24:58;7.20;;;3.60;;
39918;SDS011;25589;51.552;13.424;2023-04-12T05:27:29;6.30;;;3.22;;
39918;SDS011;25589;51.552;13.424;2023-04-12T05:29:57;5.18;;;3.70;;
39918;SDS011;25589;51.552;13.424;2023-04-12T05:32:24;5.28;;;3.42;;
39918;SDS011;25589;51.552;13.424;2023-04-12T05:34:51;8.40;;;3.97;;
39918;SDS011;25589;51.552;13.424;2023-04-12T05:37:17;6.65;;;4.07;;
39918;SDS011;25589;51.552;13.424;2023-04-12T05:39:43;6.10;;;3.83;;
39918;SDS011;25589;51.552;13.424;2023-04-12T05:42:08;7.55;;;3.65;;
39918;SDS011;25589;51.552;13.424;2023-04-12T05:44:34;7.10;;;3.85;;
39918;SDS011;25589;51.552;13.424;2023-04-12T05:47:04;7.30;;;4.13;;
39918;SDS011;25589;51.552;13.424;2023-04-12T05:49:31;4.70;;;3.20;;
39918;SDS011;25589;51.552;13.424;2023-04-12T05:51:58;4.43;;;3.50;;
39918;SDS011;25589;51.552;13.424;2023-04-12T05:54:24;4.65;;;3.50;;
39918;SDS011;25589;51.552;13.424;2023-04-12T05:56:52;5.38;;;3.88;;
39918;SDS011;25589;51.552;13.424;2023-04-12T05:59:19;5.03;;;3.65;;
39918;SDS011;25589;51.552;13.424;2023-04-12T06:01:45;5.60;;;3.50;;
39918;SDS011;25589;51.552;13.424;2023-04-12T06:04:10;6.65;;;3.92;;
39918;SDS011;25589;51.552;13.424;2023-04-12T06:06:37;4.60;;;3.40;;
39918;SDS011;25589;51.552;13.424;2023-04-12T06:09:02;6.70;;;3.80;;
39918;SDS011;25589;51.552;13.424;2023-04-12T06:11:29;8.48;;;3.88;;
39918;SDS011;25589;51.552;13.424;2023-04-12T06:13:59;8.48;;;3.90;;
39918;SDS011;25589;51.552;13.424;2023-04-12T06:16:25;6.63;;;4.10;;
39918;SDS011;25589;51.552;13.424;2023-04-12T06:18:51;6.80;;;4.57;;
39918;SDS011;25589;51.552;13.424;2023-04-12T06:21:17;8.70;;;4.10;;
39918;SDS011;25589;51.552;13.424;2023-04-12T06:23:43;6.93;;;3.78;;
39918;SDS011;25589;51.552;13.424;2023-04-12T06:26:09;5.78;;;3.83;;
39918;SDS011;25589;51.552;13.424;2023-04-12T06:28:35;6.50;;;4.13;;
39918;SDS011;25589;51.552;13.424;2023-04-12T06:31:01;5.53;;;3.67;;
39918;SDS011;25589;51.552;13.424;2023-04-12T06:33:34;7.35;;;4.80;;
39918;SDS011;25589;51.552;13.424;2023-04-12T06:36:01;8.02;;;4.97;;
39918;SDS011;25589;51.552;13.424;2023-04-12T06:38:27;5.93;;;3.90;;
39918;SDS011;25589;51.552;13.424;2023-04-12T06:40:52;6.55;;;3.53;;
39918;SDS011;25589;51.552;13.424;2023-04-12T06:43:18;5.32;;;4.07;;
39918;SDS011;25589;51.552;13.424;2023-04-12T06:45:44;8.75;;;3.45;;
39918;SDS011;25589;51.552;13.424;2023-04-12T06:48:10;3.90;;;3.15;;
39918;SDS011;25589;51.552;13.424;2023-04-12T06:50:36;7.63;;;4.45;;
39918;SDS011;25589;51.552;13.424;2023-04-12T06:53:01;6.60;;;2.67;;
39918;SDS011;25589;51.552;13.424;2023-04-12T06:55:27;5.07;;;3.25;;
39918;SDS011;25589;51.552;13.424;2023-04-12T06:57:53;6.43;;;3.70;;
39918;SDS011;25589;51.552;13.424;2023-04-12T07:00:19;5.82;;;3.22;;
39918;SDS011;25589;51.552;13.424;2023-04-12T07:02:45;14.68;;;6.80;;
39918;SDS011;25589;51.552;13.424;2023-04-12T07:05:11;4.30;;;3.00;;
39918;SDS011;25589;51.552;13.424;2023-04-12T07:07:36;5.28;;;3.35;;
39918;SDS011;25589;51.552;13.424;2023-04-12T07:10:02;4.57;;;2.35;;
39918;SDS011;25589;51.552;13.424;2023-04-12T07:12:28;24.13;;;11.77;;
39918;SDS011;25589;51.552;13.424;2023-04-12T07:14:54;19.63;;;9.20;;
39918;SDS011;25589;51.552;13.424;2023-04-12T07:17:19;11.82;;;4.93;;
39918;SDS011;25589;51.552;13.424;2023-04-12T07:19:45;39.15;;;17.58;;
39918;SDS011;25589;51.552;13.424;2023-04-12T07:22:11;13.15;;;6.40;;
39918;SDS011;25589;51.552;13.424;2023-04-12T07:24:37;22.70;;;8.50;;
39918;SDS011;25589;51.552;13.424;2023-04-12T07:27:02;6.93;;;3.63;;
39918;SDS011;25589;51.552;13.424;2023-04-12T07:29:28;4.53;;;2.33;;
39918;SDS011;25589;51.552;13.424;2023-04-12T07:31:53;5.25;;;2.17;;
39918;SDS011;25589;51.552;13.424;2023-04-12T07:34:19;5.95;;;2.47;;
39918;SDS011;25589;51.552;13.424;2023-04-12T07:36:45;4.97;;;2.10;;
39918;SDS011;25589;51.552;13.424;2023-04-12T07:39:11;3.33;;;2.08;;
39918;SDS011;25589;51.552;13.424;2023-04-12T07:41:37;4.75;;;1.90;;
39918;SDS011;25589;51.552;13.424;2023-04-12T07:44:03;2.03;;;1.48;;
39918;SDS011;25589;51.552;13.424;2023-04-12T07:46:29;2.60;;;1.60;;
39918;SDS011;25589;51.552;13.424;2023-04-12T07:48:55;5.75;;;2.00;;
39918;SDS011;25589;51.552;13.424;2023-04-12T07:51:20;6.70;;;1.98;;
39918;SDS011;25589;51.552;13.424;2023-04-12T07:53:46;5.53;;;1.48;;
39918;SDS011;25589;51.552;13.424;2023-04-12T07:56:12;4.97;;;1.67;;
39918;SDS011;25589;51.552;13.424;2023-04-12T07:58:38;2.75;;;1.60;;
39918;SDS011;25589;51.552;13.424;2023-04-12T08:01:04;3.80;;;1.45;;
39918;SDS011;25589;51.552;13.424;2023-04-12T08:03:31;3.28;;;1.55;;
39918;SDS011;25589;51.552;13.424;2023-04-12T08:05:56;2.80;;;1.38;;
39918;SDS011;25589;51.552;13.424;2023-04-12T08:08:22;2.60;;;1.25;;
39918;SDS011;25589;51.552;13.424;2023-04-12T08:10:48;5.40;;;1.52;;
39918;SDS011;25589;51.552;13.424;2023-04-12T08:13:15;6.18;;;1.67;;
39918;SDS011;25589;51.552;13.424;2023-04-12T08:15:40;5.80;;;2.00;;
39918;SDS011;25589;51.552;13.424;2023-04-12T08:18:07;3.00;;;1.30;;
39918;SDS011;25589;51.552;13.424;2023-04-12T08:20:34;7.30;;;2.22;;
39918;SDS011;25589;51.552;13.424;2023-04-12T08:22:59;2.95;;;1.52;;
39918;SDS011;25589;51.552;13.424;2023-04-12T08:25:25;3.25;;;1.50;;
39918;SDS011;25589;51.552;13.424;2023-04-12T08:27:51;3.50;;;1.63;;
39918;SDS011;25589;51.552;13.424;2023-04-12T08:30:16;4.03;;;1.70;;
39918;SDS011;25589;51.552;13.424;2023-04-12T08:32:42;4.03;;;1.85;;
39918;SDS011;25589;51.552;13.424;2023-04-12T08:35:08;9.20;;;1.77;;
39918;SDS011;25589;51.552;13.424;2023-04-12T08:37:34;4.88;;;1.65;;
39918;SDS011;25589;51.552;13.424;2023-04-12T08:40:04;1.63;;;1.13;;
39918;SDS011;25589;51.552;13.424;2023-04-12T08:42:31;3.00;;;1.48;;
39918;SDS011;25589;51.552;13.424;2023-04-12T08:45:03;4.22;;;1.42;;
39918;SDS011;25589;51.552;13.424;2023-04-12T08:47:30;4.53;;;1.50;;
39918;SDS011;25589;51.552;13.424;2023-04-12T08:49:59;7.22;;;3.40;;
39918;SDS011;25589;51.552;13.424;2023-04-12T08:52:25;6.57;;;2.50;;
39918;SDS011;25589;51.552;13.424;2023-04-12T08:54:51;7.03;;;3.47;;
39918;SDS011;25589;51.552;13.424;2023-04-12T08:57:16;6.72;;;2.67;;
39918;SDS011;25589;51.552;13.424;2023-04-12T08:59:44;4.38;;;1.98;;
39918;SDS011;25589;51.552;13.424;2023-04-12T09:02:13;4.45;;;2.22;;
39918;SDS011;25589;51.552;13.424;2023-04-12T09:04:46;6.10;;;1.95;;
39918;SDS011;25589;51.552;13.424;2023-04-12T09:07:16;4.70;;;1.90;;
39918;SDS011;25589;51.552;13.424;2023-04-12T09:09:48;5.20;;;1.92;;
39918;SDS011;25589;51.552;13.424;2023-04-12T09:12:14;3.92;;;1.77;;
39918;SDS011;25589;51.552;13.424;2023-04-12T09:14:41;4.40;;;1.60;;
39918;SDS011;25589;51.552;13.424;2023-04-12T09:17:24;5.38;;;1.70;;
39918;SDS011;25589;51.552;13.424;2023-04-12T09:19:51;3.55;;;1.50;;
39918;SDS011;25589;51.552;13.424;2023-04-12T09:22:29;2.75;;;2.00;;
39918;SDS011;25589;51.552;13.424;2023-04-12T09:25:00;4.55;;;2.30;;
39918;SDS011;25589;51.552;13.424;2023-04-12T09:27:25;3.47;;;2.03;;
39918;SDS011;25589;51.552;13.424;2023-04-12T09:30:06;3.58;;;1.73;;
39918;SDS011;25589;51.552;13.424;2023-04-12T09:32:32;4.97;;;1.95;;
39918;SDS011;25589;51.552;13.424;2023-04-12T09:34:58;5.25;;;2.00;;
39918;SDS011;25589;51.552;13.424;2023-04-12T09:37:27;2.63;;;1.58;;
39918;SDS011;25589;51.552;13.424;2023-04-12T09:40:03;4.50;;;1.75;;
39918;SDS011;25589;51.552;13.424;2023-04-12T09:42:34;4.40;;;1.63;;
39918;SDS011;25589;51.552;13.424;2023-04-12T09:45:19;2.88;;;1.45;;
39918;SDS011;25589;51.552;13.424;2023-04-12T09:47:46;5.80;;;2.08;;
39918;SDS011;25589;51.552;13.424;2023-04-12T09:50:19;4.20;;;1.77;;
39918;SDS011;25589;51.552;13.424;2023-04-12T09:52:46;4.63;;;1.52;;
39918;SDS011;25589;51.552;13.424;2023-04-12T09:55:12;3.92;;;1.25;;
39918;SDS011;25589;51.552;13.424;2023-04-12T09:57:40;3.45;;;1.48;;
39918;SDS011;25589;51.552;13.424;2023-04-12T10:00:07;4.22;;;1.42;;
39918;SDS011;25589;51.552;13.424;2023-04-12T10:02:36;5.30;;;1.70;;
39918;SDS011;25589;51.552;13.424;2023-04-12T10:05:03;3.80;;;1.85;;
39918;SDS011;25589;51.552;13.424;2023-04-12T10:07:30;2.63;;;1.58;;
39918;SDS011;25589;51.552;13.424;2023-04-12T10:09:57;3.42;;;1.65;;
39918;SDS011;25589;51.552;13.424;2023-04-12T10:12:24;4.63;;;1.30;;
39918;SDS011;25589;51.552;13.424;2023-04-12T10:14:51;1.75;;;1.13;;
39918;SDS011;25589;51.552;13.424;2023-04-12T10:17:19;2.25;;;1.50;;
39918;SDS011;25589;51.552;13.424;2023-04-12T10:19:46;4.43;;;1.30;;
39918;SDS011;25589;51.552;13.424;2023-04-12T10:22:13;5.57;;;2.00;;
39918;SDS011;25589;51.552;13.424;2023-04-12T10:24:41;6.68;;;1.73;;
39918;SDS011;25589;51.552;13.424;2023-04-12T10:27:07;3.63;;;1.60;;
39918;SDS011;25589;51.552;13.424;2023-04-12T10:29:34;2.13;;;1.40;;
39918;SDS011;25589;51.552;13.424;2023-04-12T10:32:18;4.25;;;1.50;;
39918;SDS011;25589;51.552;13.424;2023-04-12T10:34:55;3.85;;;1.77;;
39918;SDS011;25589;51.552;13.424;2023-04-12T10:37:55;1.85;;;1.40;;
39918;SDS011;25589;51.552;13.424;2023-04-12T10:40:30;4.57;;;1.60;;
39918;SDS011;25589;51.552;13.424;2023-04-12T10:45:58;7.78;;;3.72;;
39918;SDS011;25589;51.552;13.424;2023-04-12T10:48:37;8.05;;;3.92;;
39918;SDS011;25589;51.552;13.424;2023-04-12T10:51:18;7.60;;;2.55;;
39918;SDS011;25589;51.552;13.424;2023-04-12T10:54:30;4.45;;;1.70;;
39918;SDS011;25589;51.552;13.424;2023-04-12T10:56:47;3.20;;;1.30;;
39918;SDS011;25589;51.552;13.424;2023-04-12T10:59:22;2.78;;;1.35;;
39918;SDS011;25589;51.552;13.424;2023-04-12T11:04:33;2.45;;;1.45;;
39918;SDS011;25589;51.552;13.424;2023-04-12T11:07:07;3.60;;;1.35;;
39918;SDS011;25589;51.552;13.424;2023-04-12T11:09:46;2.90;;;1.60;;
39918;SDS011;25589;51.552;13.424;2023-04-12T11:12:22;3.80;;;1.30;;
39918;SDS011;25589;51.552;13.424;2023-04-12T11:14:52;3.85;;;1.30;;
39918;SDS011;25589;51.552;13.424;2023-04-12T11:17:24;3.80;;;1.33;;
39918;SDS011;25589;51.552;13.424;2023-04-12T11:19:51;5.43;;;1.17;;
39918;SDS011;25589;51.552;13.424;2023-04-12T11:22:20;4.90;;;1.58;;
39918;SDS011;25589;51.552;13.424;2023-04-12T11:24:48;3.67;;;1.52;;
39918;SDS011;25589;51.552;13.424;2023-04-12T11:27:18;2.78;;;1.08;;
39918;SDS011;25589;51.552;13.424;2023-04-12T11:29:47;4.10;;;1.33;;
39918;SDS011;25589;51.552;13.424;2023-04-12T11:34:44;3.35;;;1.27;;
39918;SDS011;25589;51.552;13.424;2023-04-12T11:37:11;3.30;;;1.20;;
39918;SDS011;25589;51.552;13.424;2023-04-12T11:39:38;2.50;;;1.08;;
39918;SDS011;25589;51.552;13.424;2023-04-12T11:42:14;4.05;;;1.45;;
39918;SDS011;25589;51.552;13.424;2023-04-12T11:44:41;4.60;;;1.45;;
39918;SDS011;25589;51.552;13.424;2023-04-12T11:47:12;3.88;;;1.20;;
39918;SDS011;25589;51.552;13.424;2023-04-12T11:49:41;4.50;;;1.33;;
39918;SDS011;25589;51.552;13.424;2023-04-12T11:52:11;1.87;;;1.00;;
39918;SDS011;25589;51.552;13.424;2023-04-12T11:54:40;2.88;;;1.30;;
39918;SDS011;25589;51.552;13.424;2023-04-12T11:57:09;2.47;;;1.02;;
39918;SDS011;25589;51.552;13.424;2023-04-12T11:59:36;5.95;;;1.50;;
39918;SDS011;25589;51.552;13.424;2023-04-12T12:02:01;3.10;;;1.23;;
39918;SDS011;25589;51.552;13.424;2023-04-12T12:04:28;3.90;;;1.17;;
39918;SDS011;25589;51.552;13.424;2023-04-12T12:06:55;2.97;;;1.00;;
39918;SDS011;25589;51.552;13.424;2023-04-12T12:09:22;3.97;;;1.10;;
39918;SDS011;25589;51.552;13.424;2023-04-12T12:11:48;2.83;;;1.13;;
39918;SDS011;25589;51.552;13.424;2023-04-12T12:14:21;6.10;;;1.38;;
39918;SDS011;25589;51.552;13.424;2023-04-12T12:16:54;8.18;;;1.80;;
39918;SDS011;25589;51.552;13.424;2023-04-12T12:19:35;3.17;;;1.48;;
39918;SDS011;25589;51.552;13.424;2023-04-12T12:22:08;4.47;;;1.55;;
39918;SDS011;25589;51.552;13.424;2023-04-12T12:24:34;3.85;;;1.70;;
39918;SDS011;25589;51.552;13.424;2023-04-12T12:27:00;3.25;;;1.73;;
39918;SDS011;25589;51.552;13.424;2023-04-12T12:29:32;12.82;;;3.10;;
39918;SDS011;25589;51.552;13.424;2023-04-12T12:31:59;6.07;;;1.70;;
39918;SDS011;25589;51.552;13.424;2023-04-12T12:34:25;36.38;;;5.15;;
39918;SDS011;25589;51.552;13.424;2023-04-12T12:36:56;8.27;;;2.00;;
39918;SDS011;25589;51.552;13.424;2023-04-12T12:39:21;7.18;;;2.10;;
39918;SDS011;25589;51.552;13.424;2023-04-12T12:41:52;6.15;;;2.53;;
39918;SDS011;25589;51.552;13.424;2023-04-12T12:44:19;14.73;;;3.72;;
39918;SDS011;25589;51.552;13.424;2023-04-12T12:46:46;13.73;;;3.53;;
39918;SDS011;25589;51.552;13.424;2023-04-12T12:49:11;8.10;;;2.15;;
39918;SDS011;25589;51.552;13.424;2023-04-12T12:51:37;3.97;;;1.80;;
39918;SDS011;25589;51.552;13.424;2023-04-12T12:54:02;3.33;;;1.55;;
39918;SDS011;25589;51.552;13.424;2023-04-12T12:56:28;2.60;;;1.40;;
39918;SDS011;25589;51.552;13.424;2023-04-12T12:58:54;4.97;;;1.73;;
39918;SDS011;25589;51.552;13.424;2023-04-12T13:01:19;5.57;;;1.60;;
39918;SDS011;25589;51.552;13.424;2023-04-12T13:03:45;6.47;;;1.50;;
39918;SDS011;25589;51.552;13.424;2023-04-12T13:06:10;4.65;;;1.70;;
39918;SDS011;25589;51.552;13.424;2023-04-12T13:08:36;5.43;;;1.30;;
39918;SDS011;25589;51.552;13.424;2023-04-12T13:11:02;5.90;;;1.60;;
39918;SDS011;25589;51.552;13.424;2023-04-12T13:13:27;4.35;;;1.70;;
39918;SDS011;25589;51.552;13.424;2023-04-12T13:15:53;2.75;;;1.60;;
39918;SDS011;25589;51.552;13.424;2023-04-12T13:18:19;4.22;;;1.70;;
39918;SDS011;25589;51.552;13.424;2023-04-12T13:20:45;5.95;;;2.22;;
39918;SDS011;25589;51.552;13.424;2023-04-12T13:23:11;3.50;;;1.70;;
39918;SDS011;25589;51.552;13.424;2023-04-12T13:25:37;3.92;;;2.10;;
39918;SDS011;25589;51.552;13.424;2023-04-12T13:28:03;5.47;;;1.95;;
39918;SDS011;25589;51.552;13.424;2023-04-12T13:30:28;6.10;;;1.85;;
39918;SDS011;25589;51.552;13.424;2023-04-12T13:32:55;4.82;;;2.13;;
39918;SDS011;25589;51.552;13.424;2023-04-12T13:35:20;5.25;;;2.22;;
39918;SDS011;25589;51.552;13.424;2023-04-12T13:37:46;5.13;;;2.13;;
39918;SDS011;25589;51.552;13.424;2023-04-12T13:40:12;1.88;;;1.38;;
39918;SDS011;25589;51.552;13.424;2023-04-12T13:42:38;4.85;;;2.13;;
39918;SDS011;25589;51.552;13.424;2023-04-12T13:45:03;4.13;;;1.45;;
39918;SDS011;25589;51.552;13.424;2023-04-12T13:47:30;7.55;;;1.88;;
39918;SDS011;25589;51.552;13.424;2023-04-12T13:49:57;3.22;;;1.58;;
39918;SDS011;25589;51.552;13.424;2023-04-12T13:52:24;13.43;;;2.42;;
39918;SDS011;25589;51.552;13.424;2023-04-12T13:54:50;10.10;;;2.70;;
39918;SDS011;25589;51.552;13.424;2023-04-12T13:57:16;8.40;;;2.30;;
39918;SDS011;25589;51.552;13.424;2023-04-12T13:59:41;2.38;;;1.67;;
39918;SDS011;25589;51.552;13.424;2023-04-12T14:02:07;7.78;;;2.20;;
39918;SDS011;25589;51.552;13.424;2023-04-12T14:04:32;3.90;;;1.45;;
39918;SDS011;25589;51.552;13.424;2023-04-12T14:06:58;3.30;;;1.58;;
39918;SDS011;25589;51.552;13.424;2023-04-12T14:09:28;5.40;;;1.55;;
39918;SDS011;25589;51.552;13.424;2023-04-12T14:11:55;5.43;;;1.67;;
39918;SDS011;25589;51.552;13.424;2023-04-12T14:14:23;2.70;;;1.50;;
39918;SDS011;25589;51.552;13.424;2023-04-12T14:16:49;3.45;;;1.45;;
39918;SDS011;25589;51.552;13.424;2023-04-12T14:19:17;14.65;;;3.38;;
39918;SDS011;25589;51.552;13.424;2023-04-12T14:21:44;7.32;;;1.80;;
39918;SDS011;25589;51.552;13.424;2023-04-12T14:24:10;12.52;;;5.78;;
39918;SDS011;25589;51.552;13.424;2023-04-12T14:26:37;8.65;;;5.30;;
39918;SDS011;25589;51.552;13.424;2023-04-12T14:29:03;6.80;;;4.57;;
39918;SDS011;25589;51.552;13.424;2023-04-12T14:31:30;12.13;;;7.95;;
39918;SDS011;25589;51.552;13.424;2023-04-12T14:33:55;3.53;;;1.60;;
39918;SDS011;25589;51.552;13.424;2023-04-12T14:36:21;2.75;;;1.70;;
39918;SDS011;25589;51.552;13.424;2023-04-12T14:38:47;5.13;;;1.70;;
39918;SDS011;25589;51.552;13.424;2023-04-12T14:41:13;5.97;;;1.40;;
39918;SDS011;25589;51.552;13.424;2023-04-12T14:43:39;6.20;;;1.83;;
39918;SDS011;25589;51.552;13.424;2023-04-12T14:46:05;2.17;;;1.50;;
39918;SDS011;25589;51.552;13.424;2023-04-12T14:48:30;3.13;;;1.08;;
39918;SDS011;25589;51.552;13.424;2023-04-12T14:50:56;4.05;;;1.40;;
39918;SDS011;25589;51.552;13.424;2023-04-12T14:53:21;3.35;;;1.58;;
39918;SDS011;25589;51.552;13.424;2023-04-12T14:55:47;2.72;;;1.70;;
39918;SDS011;25589;51.552;13.424;2023-04-12T14:58:13;3.70;;;1.63;;
39918;SDS011;25589;51.552;13.424;2023-04-12T15:00:38;4.68;;;2.00;;
39918;SDS011;25589;51.552;13.424;2023-04-12T15:03:04;4.28;;;2.00;;